Time;durP1;ratioP1;P1;durP2;ratioP2;P2;SDS_P1;SDS_P2;PMS_P1;PMS_P2;Temp;Humidity;BMP_temperature;BMP_pressure;BME280_temperature;BME280_humidity;BME280_pressure;Samples;Min_cycle;Max_cycle;Signal;HPM_P1;HPM_P2
2021/10/24 00:02:22;;;;;;;8.30;7.13;;;8.60;86.40;;;;;;5096482;28;20444;-69
2021/10/24 00:04:48;;;;;;;10.40;6.90;;;8.60;86.20;;;;;;5096454;28;20471;-69
2021/10/24 00:07:15;;;;;;;6.73;6.23;;;8.50;86.10;;;;;;5096347;28;20497;-69
2021/10/24 00:09:42;;;;;;;9.93;7.03;;;8.50;85.90;;;;;;5096161;28;20522;-69
2021/10/24 00:12:10;;;;;;;7.80;5.63;;;8.50;85.90;;;;;;5096265;28;20452;-69
2021/10/24 00:14:37;;;;;;;8.63;6.70;;;8.50;85.90;;;;;;5095446;28;20452;-69
2021/10/24 00:17:04;;;;;;;9.23;6.20;;;8.50;86.80;;;;;;5096094;28;20443;-70
2021/10/24 00:19:31;;;;;;;8.83;6.20;;;8.50;86.20;;;;;;5095684;28;20920;-69
2021/10/24 00:21:58;;;;;;;8.73;6.40;;;8.50;86.30;;;;;;5096033;28;20550;-69
2021/10/24 00:24:24;;;;;;;8.00;7.07;;;8.50;86.40;;;;;;5095621;28;20968;-69
2021/10/24 00:26:51;;;;;;;6.87;6.07;;;8.50;86.40;;;;;;5095920;28;20464;-69
2021/10/24 00:29:19;;;;;;;6.73;6.03;;;8.50;86.40;;;;;;5095858;28;20470;-69
2021/10/24 00:31:46;;;;;;;8.10;6.80;;;8.40;86.40;;;;;;5095863;28;20443;-69
2021/10/24 00:34:13;;;;;;;8.23;6.87;;;8.50;86.60;;;;;;5095752;28;20494;-69
2021/10/24 00:36:39;;;;;;;8.90;7.27;;;8.50;86.50;;;;;;5095565;28;20470;-69
2021/10/24 00:39:06;;;;;;;8.60;6.67;;;8.50;86.40;;;;;;5095659;28;20443;-69
2021/10/24 00:41:33;;;;;;;9.37;6.80;;;8.50;86.40;;;;;;5095611;28;20444;-69
2021/10/24 00:44:17;;;;;;;10.57;6.60;;;8.40;86.10;;;;;;5095489;28;20479;-69
2021/10/24 00:46:45;;;;;;;6.93;6.17;;;8.40;86.00;;;;;;5095579;28;20435;-70
2021/10/24 00:49:12;;;;;;;7.10;6.23;;;8.40;86.10;;;;;;5095589;28;20447;-69
2021/10/24 00:51:39;;;;;;;9.20;6.17;;;8.30;85.90;;;;;;5095422;28;20479;-69
2021/10/24 00:54:06;;;;;;;9.10;7.23;;;8.30;86.00;;;;;;5095420;28;20443;-69
2021/10/24 00:56:32;;;;;;;7.13;5.90;;;8.30;86.00;;;;;;5095339;28;20440;-70
2021/10/24 00:59:00;;;;;;;7.77;6.53;;;8.30;86.00;;;;;;5095300;28;20451;-69
2021/10/24 01:01:27;;;;;;;7.77;6.73;;;8.30;86.10;;;;;;5095279;28;20471;-69
2021/10/24 01:03:55;;;;;;;7.33;6.63;;;8.20;86.00;;;;;;5095181;28;20506;-70
2021/10/24 01:06:22;;;;;;;9.17;7.37;;;8.20;86.10;;;;;;5095304;28;20432;-69
2021/10/24 01:08:49;;;;;;;9.23;7.00;;;8.20;86.30;;;;;;5095147;28;20448;-70
2021/10/24 01:11:16;;;;;;;11.00;7.00;;;8.20;86.30;;;;;;5094999;28;20467;-70
2021/10/24 01:13:43;;;;;;;11.67;6.67;;;8.20;86.40;;;;;;5094991;28;20452;-70
2021/10/24 01:16:11;;;;;;;7.10;6.40;;;8.20;86.60;;;;;;5095023;28;20514;-69
2021/10/24 01:18:37;;;;;;;9.80;7.47;;;8.20;86.80;;;;;;5094933;28;20455;-69
2021/10/24 01:21:06;;;;;;;7.90;7.20;;;8.20;86.70;;;;;;5094507;28;21005;-69
2021/10/24 01:23:33;;;;;;;8.93;6.57;;;8.10;86.40;;;;;;5094801;28;20833;-69
2021/10/24 01:26:00;;;;;;;9.23;6.57;;;8.10;86.50;;;;;;5093925;28;20937;-70
2021/10/24 01:28:27;;;;;;;8.47;7.33;;;8.10;86.50;;;;;;5094422;28;20432;-69
2021/10/24 01:30:55;;;;;;;8.60;7.20;;;8.10;86.50;;;;;;5094711;28;20478;-69
2021/10/24 01:33:22;;;;;;;6.97;6.30;;;8.10;86.20;;;;;;5094391;28;20454;-69
2021/10/24 01:35:52;;;;;;;7.60;6.20;;;8.10;86.00;;;;;;5094138;28;20439;-69
2021/10/24 01:38:20;;;;;;;9.50;6.50;;;8.10;86.00;;;;;;5094724;28;20428;-69
2021/10/24 01:40:47;;;;;;;9.17;6.43;;;8.00;85.90;;;;;;5094513;28;20554;-69
2021/10/24 01:43:13;;;;;;;8.53;6.87;;;8.00;85.70;;;;;;5094384;28;20455;-69
2021/10/24 01:45:40;;;;;;;6.93;6.33;;;7.90;85.70;;;;;;5094101;28;20443;-69
2021/10/24 01:48:07;;;;;;;9.50;6.70;;;8.00;85.90;;;;;;5094418;28;20459;-69
2021/10/24 01:50:34;;;;;;;11.60;7.70;;;7.90;85.90;;;;;;5094015;28;20877;-69
2021/10/24 01:53:00;;;;;;;7.30;6.60;;;7.90;86.00;;;;;;5094271;28;20448;-69
2021/10/24 01:55:31;;;;;;;10.97;7.07;;;7.90;86.90;;;;;;5094249;28;20447;-69
2021/10/24 01:57:57;;;;;;;8.87;7.63;;;7.90;86.20;;;;;;5094293;28;20494;-69
2021/10/24 02:00:25;;;;;;;8.20;6.87;;;7.90;86.30;;;;;;5094260;28;20801;-69
2021/10/24 02:02:52;;;;;;;8.17;6.97;;;7.90;86.30;;;;;;5095508;28;20432;-69
2021/10/24 02:05:19;;;;;;;11.27;6.80;;;7.90;86.20;;;;;;5094910;28;20490;-69
2021/10/24 02:07:46;;;;;;;10.93;6.80;;;7.90;86.30;;;;;;5094138;28;20451;-70
2021/10/24 02:10:15;;;;;;;11.53;7.30;;;7.90;86.40;;;;;;5094248;28;20805;-69
2021/10/24 02:12:43;;;;;;;15.40;7.97;;;7.80;86.30;;;;;;5093759;28;20436;-69
2021/10/24 02:15:11;;;;;;;12.20;7.30;;;7.90;86.70;;;;;;5093674;28;20424;-69
2021/10/24 02:17:38;;;;;;;8.90;7.20;;;7.80;86.70;;;;;;5093861;28;20452;-69
2021/10/24 02:20:06;;;;;;;7.40;6.67;;;7.80;86.70;;;;;;5093780;28;20965;-69
2021/10/24 02:22:33;;;;;;;13.03;8.20;;;7.80;86.80;;;;;;5093570;28;20937;-69
2021/10/24 02:25:00;;;;;;;10.87;7.53;;;7.80;86.90;;;;;;5093696;28;20479;-69
2021/10/24 02:27:27;;;;;;;7.63;6.83;;;7.80;87.30;;;;;;5093714;28;20440;-69
2021/10/24 02:29:55;;;;;;;12.40;8.20;;;7.80;87.40;;;;;;5093622;28;20489;-68
2021/10/24 02:32:22;;;;;;;12.73;7.90;;;7.80;87.80;;;;;;5093694;28;20440;-69
2021/10/24 02:34:49;;;;;;;8.53;7.63;;;7.70;87.70;;;;;;5093687;28;20451;-69
2021/10/24 02:37:16;;;;;;;7.80;6.77;;;7.70;87.70;;;;;;5093325;28;20460;-69
2021/10/24 02:39:42;;;;;;;8.27;7.40;;;7.70;87.90;;;;;;5093431;28;20464;-69
2021/10/24 02:42:09;;;;;;;10.40;8.23;;;7.70;88.20;;;;;;5093254;28;20937;-69
2021/10/24 02:44:36;;;;;;;11.30;7.37;;;7.70;88.30;;;;;;5093462;28;20502;-69
2021/10/24 02:47:05;;;;;;;7.47;6.73;;;7.70;88.40;;;;;;5093529;28;20451;-70
2021/10/24 02:49:31;;;;;;;9.50;7.40;;;7.70;88.40;;;;;;5093466;28;20847;-69
2021/10/24 02:51:58;;;;;;;8.87;6.77;;;7.70;88.40;;;;;;5093515;28;20474;-69
2021/10/24 02:54:26;;;;;;;8.57;7.67;;;7.60;88.30;;;;;;5093458;28;20432;-70
2021/10/24 02:56:53;;;;;;;8.90;7.30;;;7.70;88.40;;;;;;5093175;28;20951;-69
2021/10/24 02:59:20;;;;;;;8.20;6.87;;;7.70;88.30;;;;;;5093387;28;20468;-68
2021/10/24 03:01:48;;;;;;;8.70;7.80;;;7.70;88.50;;;;;;5093428;28;20440;-68
2021/10/24 03:04:16;;;;;;;9.60;8.03;;;7.70;88.80;;;;;;5093358;28;20476;-69
2021/10/24 03:06:43;;;;;;;10.73;7.97;;;7.60;88.70;;;;;;5093347;28;20444;-69
2021/10/24 03:09:09;;;;;;;11.17;7.27;;;7.60;89.60;;;;;;5093264;28;20452;-68
2021/10/24 03:11:36;;;;;;;8.10;7.30;;;7.60;89.70;;;;;;5092964;28;20448;-69
2021/10/24 03:14:03;;;;;;;8.13;7.30;;;7.60;89.20;;;;;;5093294;28;20421;-69
2021/10/24 03:16:30;;;;;;;15.87;9.07;;;7.60;89.50;;;;;;5093256;28;20451;-69
2021/10/24 03:18:57;;;;;;;10.17;8.97;;;7.70;90.00;;;;;;5093281;28;20444;-69
2021/10/24 03:21:25;;;;;;;8.80;7.77;;;7.70;90.30;;;;;;5093114;28;20463;-69
2021/10/24 03:23:52;;;;;;;8.97;8.03;;;7.70;90.50;;;;;;5093107;28;20444;-69
2021/10/24 03:26:19;;;;;;;14.03;8.60;;;7.70;90.60;;;;;;5093225;28;20435;-69
2021/10/24 03:28:46;;;;;;;11.60;8.73;;;7.70;90.70;;;;;;5093182;28;20444;-69
2021/10/24 03:31:12;;;;;;;9.00;7.83;;;7.80;90.70;;;;;;5093035;28;20467;-69
2021/10/24 03:33:39;;;;;;;10.90;9.00;;;7.70;90.70;;;;;;5093084;28;20444;-69
2021/10/24 03:36:06;;;;;;;9.53;8.30;;;7.70;90.80;;;;;;5092604;28;20835;-69
2021/10/24 03:38:34;;;;;;;12.27;8.93;;;7.70;90.90;;;;;;5093009;28;20433;-69
2021/10/24 03:41:01;;;;;;;10.73;8.67;;;7.80;91.00;;;;;;5092968;28;20472;-69
2021/10/24 03:43:28;;;;;;;11.67;8.60;;;7.80;91.10;;;;;;5093029;28;20440;-69
2021/10/24 03:45:55;;;;;;;9.43;8.50;;;7.80;91.10;;;;;;5092630;28;20548;-69
2021/10/24 03:48:22;;;;;;;10.97;9.30;;;7.80;91.20;;;;;;5092918;28;20448;-69
2021/10/24 03:50:48;;;;;;;10.13;9.00;;;7.80;91.20;;;;;;5095108;28;20466;-69
2021/10/24 03:53:16;;;;;;;10.33;8.60;;;7.80;91.20;;;;;;5096625;28;20447;-69
2021/10/24 03:55:45;;;;;;;10.90;9.40;;;7.80;91.20;;;;;;5096553;28;20439;-69
2021/10/24 03:58:12;;;;;;;12.67;8.73;;;7.80;91.20;;;;;;5096518;28;20813;-69
2021/10/24 04:00:39;;;;;;;10.53;8.00;;;7.80;91.60;;;;;;5096760;28;20478;-69
2021/10/24 04:03:06;;;;;;;12.13;10.20;;;7.80;91.20;;;;;;5096142;28;20439;-70
2021/10/24 04:05:34;;;;;;;10.43;8.43;;;7.80;91.20;;;;;;5097130;28;20483;-69
2021/10/24 04:08:01;;;;;;;12.10;9.13;;;7.80;91.20;;;;;;5096169;28;20838;-69
2021/10/24 04:10:29;;;;;;;11.23;9.47;;;7.80;91.10;;;;;;5096449;28;20533;-68
2021/10/24 04:12:58;;;;;;;11.43;10.10;;;7.80;91.00;;;;;;5096266;28;20454;-69
2021/10/24 04:15:26;;;;;;;10.33;9.30;;;7.80;90.90;;;;;;5096198;28;20451;-69
2021/10/24 04:17:53;;;;;;;11.20;9.10;;;7.80;90.90;;;;;;5095800;28;20444;-69
2021/10/24 04:20:22;;;;;;;11.97;9.87;;;7.80;90.80;;;;;;5095773;28;20810;-69
2021/10/24 04:22:50;;;;;;;10.40;9.30;;;7.80;90.70;;;;;;5096129;28;20443;-70
2021/10/24 04:25:17;;;;;;;14.33;9.60;;;7.80;90.60;;;;;;5096010;28;20515;-70
2021/10/24 04:27:44;;;;;;;10.80;9.23;;;7.70;90.40;;;;;;5095990;28;20804;-70
2021/10/24 04:30:13;;;;;;;14.10;9.30;;;7.70;90.30;;;;;;5095783;28;20463;-69
2021/10/24 04:32:43;;;;;;;12.27;10.90;;;7.70;90.20;;;;;;5095832;28;20815;-69
2021/10/24 04:35:10;;;;;;;12.13;9.50;;;7.70;90.20;;;;;;5096156;28;20497;-69
2021/10/24 04:37:37;;;;;;;11.70;10.07;;;7.70;90.10;;;;;;5095429;28;20459;-69
2021/10/24 04:40:05;;;;;;;11.50;10.17;;;7.70;90.00;;;;;;5095780;28;20462;-69
2021/10/24 04:42:33;;;;;;;12.37;9.70;;;7.70;89.90;;;;;;5095670;28;20451;-69
2021/10/24 04:45:00;;;;;;;11.30;9.73;;;7.60;89.80;;;;;;5095250;28;20482;-69
2021/10/24 04:47:28;;;;;;;11.03;9.63;;;7.60;89.60;;;;;;5095544;28;20446;-69
2021/10/24 04:49:54;;;;;;;10.47;8.80;;;7.60;89.40;;;;;;5095363;28;20561;-69
2021/10/24 04:52:21;;;;;;;11.63;9.30;;;7.60;89.40;;;;;;5095319;28;20451;-69
2021/10/24 04:54:48;;;;;;;13.00;9.80;;;7.60;89.40;;;;;;5095289;28;20452;-69
2021/10/24 04:57:14;;;;;;;10.83;9.70;;;7.50;89.20;;;;;;5095275;28;20440;-69
2021/10/24 04:59:41;;;;;;;10.57;9.37;;;7.50;89.00;;;;;;5095141;28;20471;-69
2021/10/24 05:02:08;;;;;;;13.37;10.00;;;7.50;88.90;;;;;;5095072;28;20481;-69
2021/10/24 05:04:38;;;;;;;12.40;9.33;;;7.40;88.70;;;;;;5095109;28;20810;-69
2021/10/24 05:07:05;;;;;;;11.13;9.50;;;7.50;88.50;;;;;;5095129;28;20458;-70
2021/10/24 05:09:31;;;;;;;12.47;8.90;;;7.40;88.30;;;;;;5095233;28;20822;-68
2021/10/24 05:11:58;;;;;;;11.40;9.67;;;7.40;88.40;;;;;;5095077;28;20455;-69
2021/10/24 05:14:25;;;;;;;12.70;11.00;;;7.40;88.40;;;;;;5096049;28;20447;-69
2021/10/24 05:16:52;;;;;;;12.33;9.30;;;7.30;88.30;;;;;;5094686;28;20446;-69
2021/10/24 05:19:18;;;;;;;11.70;9.27;;;7.30;88.30;;;;;;5094845;28;20451;-69
2021/10/24 05:21:46;;;;;;;11.93;8.90;;;7.30;88.50;;;;;;5094925;28;20443;-69
2021/10/24 05:24:13;;;;;;;10.50;9.40;;;7.30;88.60;;;;;;5094732;28;20444;-69
2021/10/24 05:26:40;;;;;;;12.83;10.10;;;7.30;88.60;;;;;;5094592;28;20545;-69
2021/10/24 05:29:07;;;;;;;13.33;9.40;;;7.20;88.70;;;;;;5094478;28;20440;-68
2021/10/24 05:31:33;;;;;;;11.77;9.80;;;7.20;88.90;;;;;;5094493;28;20451;-68
2021/10/24 05:34:00;;;;;;;11.83;9.67;;;7.20;89.00;;;;;;5094626;28;20451;-68
2021/10/24 05:36:27;;;;;;;12.20;10.03;;;7.20;89.10;;;;;;5094397;28;20808;-68
2021/10/24 05:38:55;;;;;;;11.80;10.00;;;7.20;89.10;;;;;;5094270;28;20943;-68
2021/10/24 05:41:21;;;;;;;13.90;10.20;;;7.20;89.00;;;;;;5094407;28;20463;-68
2021/10/24 05:43:48;;;;;;;16.73;10.50;;;7.20;89.10;;;;;;5094503;28;20428;-68
2021/10/24 05:46:15;;;;;;;14.60;10.53;;;7.20;89.30;;;;;;5093995;28;20993;-68
2021/10/24 05:48:42;;;;;;;12.83;10.63;;;7.20;89.40;;;;;;5094379;28;20450;-68
2021/10/24 05:51:10;;;;;;;15.80;11.83;;;7.20;89.60;;;;;;5094231;28;20463;-68
2021/10/24 05:53:37;;;;;;;12.23;10.00;;;7.20;90.00;;;;;;5094254;28;20448;-68
2021/10/24 05:56:06;;;;;;;11.97;9.90;;;7.20;90.10;;;;;;5094217;28;20763;-68
2021/10/24 05:58:33;;;;;;;14.77;10.70;;;7.20;90.20;;;;;;5094178;28;20448;-68
2021/10/24 06:00:59;;;;;;;12.63;11.33;;;7.20;90.30;;;;;;5094022;28;20468;-68
2021/10/24 06:03:26;;;;;;;12.60;10.50;;;7.20;90.40;;;;;;5093883;28;20436;-68
2021/10/24 06:05:53;;;;;;;17.70;10.93;;;7.20;90.50;;;;;;5093968;28;20471;-68
2021/10/24 06:08:23;;;;;;;12.77;10.57;;;7.20;90.60;;;;;;5093984;28;20446;-68
2021/10/24 06:10:53;;;;;;;13.93;11.70;;;7.20;90.60;;;;;;5093956;28;20467;-69
2021/10/24 06:13:21;;;;;;;17.43;11.30;;;7.20;90.70;;;;;;5093343;28;20439;-69
2021/10/24 06:15:48;;;;;;;15.33;12.13;;;7.20;90.70;;;;;;5093868;28;20443;-69
2021/10/24 06:18:14;;;;;;;15.43;11.27;;;7.20;90.90;;;;;;5093828;28;20812;-69
2021/10/24 06:20:41;;;;;;;17.53;13.07;;;7.20;90.90;;;;;;5093497;28;20479;-69
2021/10/24 06:23:08;;;;;;;15.67;12.33;;;7.20;90.80;;;;;;5093762;28;20435;-69
2021/10/24 06:25:35;;;;;;;16.33;12.60;;;7.20;90.80;;;;;;5093915;28;20848;-69
2021/10/24 06:28:02;;;;;;;12.30;10.97;;;7.20;90.90;;;;;;5093850;28;20428;-69
2021/10/24 06:30:30;;;;;;;18.00;12.63;;;7.30;90.90;;;;;;5093523;28;21000;-68
2021/10/24 06:32:57;;;;;;;13.23;11.80;;;7.20;90.90;;;;;;5093647;28;20448;-68
2021/10/24 06:35:23;;;;;;;16.70;12.77;;;7.20;91.00;;;;;;5093517;28;20905;-69
2021/10/24 06:37:50;;;;;;;15.00;12.00;;;7.20;91.00;;;;;;5093360;28;20456;-69
2021/10/24 06:40:18;;;;;;;13.27;10.90;;;7.20;91.10;;;;;;5093202;28;20969;-68
2021/10/24 06:42:45;;;;;;;16.13;11.60;;;7.30;91.20;;;;;;5093710;28;20832;-69
2021/10/24 06:45:12;;;;;;;15.50;12.23;;;7.30;91.20;;;;;;5093526;28;20479;-69
2021/10/24 06:47:41;;;;;;;16.63;11.43;;;7.30;91.20;;;;;;5093618;28;20459;-69
2021/10/24 06:50:09;;;;;;;15.67;12.70;;;7.30;91.60;;;;;;5093486;28;20459;-68
2021/10/24 06:52:37;;;;;;;21.27;11.40;;;7.30;91.20;;;;;;5093571;28;20452;-69
2021/10/24 06:55:04;;;;;;;13.57;10.97;;;7.40;91.40;;;;;;5093470;28;20466;-69
2021/10/24 06:57:33;;;;;;;14.07;11.73;;;7.40;91.40;;;;;;5093455;28;20447;-69
2021/10/24 07:00:00;;;;;;;12.90;10.77;;;7.40;91.40;;;;;;5093513;28;20550;-68
2021/10/24 07:02:27;;;;;;;13.80;10.50;;;7.40;91.40;;;;;;5094102;28;20460;-68
2021/10/24 07:04:55;;;;;;;17.80;11.70;;;7.40;91.30;;;;;;5093368;28;20443;-68
2021/10/24 07:07:24;;;;;;;12.83;10.83;;;7.30;91.40;;;;;;5093401;28;20438;-68
2021/10/24 07:09:51;;;;;;;13.07;10.53;;;7.40;91.60;;;;;;5093299;28;20493;-68
2021/10/24 07:12:18;;;;;;;14.73;11.23;;;7.40;91.70;;;;;;5093274;28;20439;-69
2021/10/24 07:14:45;;;;;;;13.50;10.47;;;7.40;91.80;;;;;;5093237;28;20444;-69
2021/10/24 07:17:11;;;;;;;13.67;10.90;;;7.40;91.90;;;;;;5092830;28;20933;-69
2021/10/24 07:19:38;;;;;;;11.73;9.60;;;7.40;91.90;;;;;;5093196;28;20464;-68
2021/10/24 07:22:06;;;;;;;14.77;9.70;;;7.50;91.90;;;;;;5093217;28;20442;-68
2021/10/24 07:24:33;;;;;;;12.60;10.57;;;7.50;91.90;;;;;;5093540;28;20435;-69
2021/10/24 07:27:01;;;;;;;15.70;10.80;;;7.50;91.90;;;;;;5097001;28;20554;-69
2021/10/24 07:29:28;;;;;;;12.90;10.70;;;7.50;91.90;;;;;;5097087;28;20520;-68
2021/10/24 07:31:55;;;;;;;18.50;10.70;;;7.60;92.00;;;;;;5097001;28;20443;-68
2021/10/24 07:34:23;;;;;;;14.00;9.93;;;7.60;92.10;;;;;;5096998;28;20443;-68
2021/10/24 07:36:50;;;;;;;12.27;10.90;;;7.60;92.00;;;;;;5096495;28;20980;-68
2021/10/24 07:39:18;;;;;;;16.53;11.63;;;7.60;92.40;;;;;;5096513;28;20994;-68
2021/10/24 07:41:46;;;;;;;16.03;10.57;;;7.70;92.20;;;;;;5096541;28;20443;-68
2021/10/24 07:44:15;;;;;;;12.00;9.70;;;7.70;92.20;;;;;;5096923;28;20427;-67
2021/10/24 07:46:41;;;;;;;11.33;9.50;;;7.70;92.20;;;;;;5096351;28;21107;-69
2021/10/24 07:49:08;;;;;;;13.90;8.97;;;7.70;92.20;;;;;;5096498;28;20451;-68
2021/10/24 07:51:36;;;;;;;12.37;9.90;;;7.70;92.20;;;;;;5096665;28;20428;-68
2021/10/24 07:54:03;;;;;;;14.73;10.90;;;7.80;92.20;;;;;;5096632;28;20439;-69
2021/10/24 07:56:33;;;;;;;13.37;11.30;;;7.90;92.30;;;;;;5096231;28;20443;-69
2021/10/24 07:59:00;;;;;;;14.27;10.60;;;7.90;92.30;;;;;;5096473;28;20448;-69
2021/10/24 08:01:27;;;;;;;16.90;10.30;;;7.90;92.10;;;;;;5096050;28;20490;-68
2021/10/24 08:03:54;;;;;;;17.60;11.00;;;8.00;92.00;;;;;;5096214;28;20439;-68
2021/10/24 08:06:21;;;;;;;15.83;9.30;;;8.00;92.10;;;;;;5096301;28;20881;-69
2021/10/24 08:08:48;;;;;;;13.37;9.70;;;8.00;92.10;;;;;;5096343;28;20439;-68
2021/10/24 08:11:15;;;;;;;11.50;9.97;;;8.00;92.20;;;;;;5095944;28;20474;-69
2021/10/24 08:13:44;;;;;;;10.10;9.20;;;8.10;92.20;;;;;;5096201;28;20439;-69
2021/10/24 08:16:11;;;;;;;12.10;9.57;;;8.20;92.20;;;;;;5096257;28;20424;-69
2021/10/24 08:18:37;;;;;;;13.23;9.80;;;8.20;92.00;;;;;;5096165;28;20448;-69
2021/10/24 08:21:04;;;;;;;12.00;9.23;;;8.30;91.90;;;;;;5095994;28;20594;-69
2021/10/24 08:23:31;;;;;;;9.53;8.47;;;8.30;91.90;;;;;;5095723;28;20451;-69
2021/10/24 08:25:58;;;;;;;10.27;8.60;;;8.40;91.80;;;;;;5095792;28;20532;-69
2021/10/24 08:28:25;;;;;;;14.27;9.70;;;8.40;91.70;;;;;;5095973;28;20803;-69
2021/10/24 08:30:53;;;;;;;10.53;9.30;;;8.50;91.80;;;;;;5095923;28;20550;-68
2021/10/24 08:33:20;;;;;;;11.70;9.53;;;8.50;91.80;;;;;;5095648;28;20439;-69
2021/10/24 08:35:47;;;;;;;11.60;9.27;;;8.60;91.80;;;;;;5095201;28;20435;-68
2021/10/24 08:38:15;;;;;;;10.23;8.07;;;8.70;91.80;;;;;;5095864;28;20439;-69
2021/10/24 08:40:43;;;;;;;9.20;8.20;;;8.70;91.60;;;;;;5096523;28;20480;-68
2021/10/24 08:43:16;;;;;;;12.77;9.53;;;8.70;91.40;;;;;;5095727;28;20438;-69
2021/10/24 08:45:44;;;;;;;11.33;9.20;;;8.80;91.40;;;;;;5095262;28;20897;-69
2021/10/24 08:48:13;;;;;;;13.83;9.20;;;8.80;91.40;;;;;;5095592;28;20440;-69
2021/10/24 08:50:40;;;;;;;13.90;8.57;;;8.90;91.50;;;;;;5095362;28;20467;-70
2021/10/24 08:53:08;;;;;;;8.53;7.63;;;8.90;91.20;;;;;;5095486;28;20482;-69
2021/10/24 08:55:36;;;;;;;11.87;8.17;;;9.00;91.20;;;;;;5095456;28;20452;-70
2021/10/24 08:58:03;;;;;;;8.63;7.60;;;9.00;91.00;;;;;;5095411;28;20559;-71
2021/10/24 09:00:30;;;;;;;9.60;8.00;;;9.10;90.80;;;;;;5095231;28;20563;-70
2021/10/24 09:02:58;;;;;;;9.43;7.50;;;9.10;90.90;;;;;;5095207;28;20456;-70
2021/10/24 09:05:45;;;;;;;8.80;7.10;;;9.20;91.30;;;;;;5096100;28;20439;-71
2021/10/24 09:08:14;;;;;;;9.97;8.03;;;9.30;91.00;;;;;;5095312;28;20424;-71
2021/10/24 09:10:45;;;;;;;12.13;7.17;;;9.30;90.70;;;;;;5095151;28;20472;-71
2021/10/24 09:13:14;;;;;;;9.20;7.00;;;9.40;90.00;;;;;;5094675;28;20947;-71
2021/10/24 09:15:52;;;;;;;7.90;6.70;;;9.50;90.00;;;;;;5095062;28;20431;-70
2021/10/24 09:18:21;;;;;;;7.80;6.60;;;9.50;90.10;;;;;;5094596;28;20466;-70
2021/10/24 09:20:50;;;;;;;6.90;6.10;;;9.60;90.30;;;;;;5094829;28;20463;-71
2021/10/24 09:23:17;;;;;;;11.50;7.53;;;9.70;89.20;;;;;;5094894;28;20448;-71
2021/10/24 09:25:50;;;;;;;9.63;6.93;;;9.80;88.80;;;;;;5094869;28;20819;-71
2021/10/24 09:28:21;;;;;;;8.03;7.07;;;9.90;87.80;;;;;;5095592;28;20804;-72
2021/10/24 09:30:48;;;;;;;8.57;7.40;;;9.90;86.80;;;;;;5095850;28;20915;-71
2021/10/24 09:33:17;;;;;;;10.30;7.33;;;9.90;86.90;;;;;;5095809;28;20455;-71
2021/10/24 09:35:47;;;;;;;9.00;7.10;;;10.00;85.50;;;;;;5095701;28;20491;-72
2021/10/24 09:38:17;;;;;;;10.23;6.80;;;10.00;85.20;;;;;;5095998;28;20432;-72
2021/10/24 09:40:47;;;;;;;8.80;6.97;;;10.10;84.90;;;;;;5095423;28;20498;-71
2021/10/24 09:43:20;;;;;;;9.70;6.43;;;10.20;85.00;;;;;;5095183;28;20928;-71
2021/10/24 09:45:50;;;;;;;10.43;7.40;;;10.20;84.20;;;;;;5095585;28;20452;-71
2021/10/24 09:48:19;;;;;;;7.93;6.80;;;10.30;83.90;;;;;;5094639;28;20444;-69
2021/10/24 09:50:50;;;;;;;9.77;7.20;;;10.30;83.10;;;;;;5095341;28;20475;-70
2021/10/24 09:53:22;;;;;;;9.03;7.63;;;10.40;83.10;;;;;;5095933;28;20532;-70
2021/10/24 09:56:03;;;;;;;9.63;6.77;;;10.50;83.00;;;;;;5095172;28;20428;-69
2021/10/24 09:58:31;;;;;;;7.27;5.90;;;10.60;82.30;;;;;;5096131;28;20428;-69
2021/10/24 10:00:58;;;;;;;8.23;6.57;;;10.70;81.90;;;;;;5096104;28;20467;-70
2021/10/24 10:03:26;;;;;;;8.87;5.87;;;10.80;81.70;;;;;;5095385;28;20523;-72
2021/10/24 10:05:54;;;;;;;11.37;6.80;;;10.90;81.40;;;;;;5094973;28;20435;-73
2021/10/24 10:08:22;;;;;;;12.57;6.83;;;11.00;80.70;;;;;;5094371;28;20428;-73
2021/10/24 10:10:52;;;;;;;8.43;6.03;;;11.10;80.50;;;;;;5094651;28;20486;-73
2021/10/24 10:13:22;;;;;;;9.30;6.87;;;11.20;80.20;;;;;;5094032;28;20459;-73
2021/10/24 10:15:50;;;;;;;8.83;6.50;;;11.50;78.80;;;;;;5093983;28;20436;-73
2021/10/24 10:18:18;;;;;;;7.43;5.87;;;11.70;77.80;;;;;;5093841;28;20459;-73
2021/10/24 10:20:47;;;;;;;8.23;5.30;;;12.10;75.60;;;;;;5094005;28;20815;-72
2021/10/24 10:23:15;;;;;;;7.57;6.17;;;12.50;74.10;;;;;;5094031;28;20486;-72
2021/10/24 10:25:45;;;;;;;7.43;6.40;;;12.80;71.70;;;;;;5094034;28;20451;-72
2021/10/24 10:28:14;;;;;;;8.77;5.83;;;13.20;70.40;;;;;;5093437;28;20459;-73
2021/10/24 10:30:42;;;;;;;9.17;5.70;;;13.60;68.50;;;;;;5093707;28;20813;-73
2021/10/24 10:33:28;;;;;;;10.10;6.10;;;13.80;66.10;;;;;;5094588;28;20432;-74
2021/10/24 10:35:55;;;;;;;8.60;5.47;;;13.90;66.60;;;;;;5094832;28;20446;-74
2021/10/24 10:38:34;;;;;;;5.90;5.30;;;13.80;66.10;;;;;;5094926;28;20435;-73
2021/10/24 10:41:03;;;;;;;7.63;5.70;;;13.70;67.20;;;;;;5095105;28;20470;-73
2021/10/24 10:43:32;;;;;;;9.37;5.63;;;13.70;67.10;;;;;;5094351;28;20452;-74
2021/10/24 10:45:59;;;;;;;6.30;5.47;;;13.60;68.30;;;;;;5095327;28;20992;-71
2021/10/24 10:48:54;;;;;;;7.13;5.20;;;13.60;67.40;;;;;;5093841;28;20555;-70
2021/10/24 10:54:52;;;;;;;7.90;5.27;;;13.90;67.60;;;;;;5102513;28;20475;-73
2021/10/24 10:57:30;;;;;;;6.03;5.40;;;14.30;65.30;;;;;;5097267;28;20794;-72
2021/10/24 10:59:58;;;;;;;5.83;5.23;;;14.90;62.80;;;;;;5096974;28;20501;-73
2021/10/24 11:02:30;;;;;;;8.33;5.10;;;15.40;60.20;;;;;;5098334;28;20424;-72
2021/10/24 11:04:58;;;;;;;7.30;4.70;;;15.80;58.50;;;;;;5110772;28;20427;-76
2021/10/24 11:07:36;;;;;;;5.13;3.93;;;16.10;57.90;;;;;;5109510;28;20479;-77
2021/10/24 11:10:04;;;;;;;7.00;4.60;;;16.40;56.60;;;;;;5103134;28;20455;-71
2021/10/24 11:12:40;;;;;;;6.77;4.87;;;16.90;54.90;;;;;;5098044;28;20438;-71
2021/10/24 11:15:18;;;;;;;7.33;4.57;;;17.40;55.20;;;;;;5097949;28;20428;-71
2021/10/24 11:17:47;;;;;;;5.27;3.73;;;18.20;55.00;;;;;;5097456;28;20434;-71
2021/10/24 11:20:39;;;;;;;5.40;4.00;;;19.00;54.10;;;;;;5097607;28;20896;-72
2021/10/24 11:23:06;;;;;;;4.40;3.60;;;19.80;51.10;;;;;;5092444;28;20451;-72
2021/10/24 11:25:36;;;;;;;4.67;3.80;;;20.70;49.50;;;;;;5097085;28;20439;-72
2021/10/24 11:28:10;;;;;;;4.63;3.80;;;21.40;47.40;;;;;;5097634;28;20518;-72
2021/10/24 11:30:38;;;;;;;4.83;3.60;;;21.80;43.50;;;;;;5097531;28;20468;-71
2021/10/24 11:33:06;;;;;;;4.20;3.80;;;21.80;42.80;;;;;;5097686;28;20458;-72
2021/10/24 11:35:36;;;;;;;5.00;3.70;;;21.90;42.60;;;;;;5097175;28;20428;-72
2021/10/24 11:38:10;;;;;;;5.17;3.77;;;22.30;44.00;;;;;;5096893;28;20458;-72
2021/10/24 11:40:40;;;;;;;6.63;6.13;;;22.90;43.10;;;;;;5096861;28;20481;-72
2021/10/24 11:43:11;;;;;;;9.83;4.43;;;23.40;40.70;;;;;;5096757;28;20894;-72
2021/10/24 11:45:40;;;;;;;6.17;4.80;;;23.80;39.10;;;;;;5096528;28;20916;-73
2021/10/24 11:48:10;;;;;;;4.60;4.20;;;24.20;40.70;;;;;;5096563;28;20487;-72
2021/10/24 11:50:52;;;;;;;5.03;4.37;;;24.70;40.00;;;;;;5096719;28;20472;-71
2021/10/24 11:53:21;;;;;;;4.57;3.93;;;25.30;38.00;;;;;;5097188;28;20424;-72
2021/10/24 11:55:53;;;;;;;5.40;3.87;;;25.70;37.30;;;;;;5096770;28;20439;-73
2021/10/24 12:01:21;;;;;;;6.10;3.70;;;26.60;34.70;;;;;;5096320;28;20941;-72
2021/10/24 12:03:56;;;;;;;5.70;4.13;;;27.00;32.30;;;;;;5096343;28;20511;-72
2021/10/24 12:06:48;;;;;;;5.57;4.03;;;26.90;30.70;;;;;;5096409;28;20423;-73
2021/10/24 12:09:24;;;;;;;4.37;3.27;;;26.90;31.50;;;;;;5096211;28;20841;-72
2021/10/24 12:11:51;;;;;;;4.00;3.17;;;26.90;32.50;;;;;;5095039;28;20458;-72
2021/10/24 12:14:20;;;;;;;4.43;3.77;;;27.20;33.00;;;;;;5096534;28;20428;-73
2021/10/24 12:16:47;;;;;;;3.93;3.13;;;27.50;32.40;;;;;;5096123;28;20486;-73
2021/10/24 12:19:18;;;;;;;4.10;3.20;;;27.90;32.00;;;;;;5096254;28;20436;-72
2021/10/24 12:21:58;;;;;;;4.17;3.50;;;28.20;31.30;;;;;;5095611;28;20894;-73
2021/10/24 12:24:27;;;;;;;3.70;3.03;;;28.60;30.10;;;;;;5096131;28;20424;-73
2021/10/24 12:27:21;;;;;;;4.23;3.53;;;28.80;29.10;;;;;;5096004;28;20443;-73
2021/10/24 12:30:08;;;;;;;3.03;2.57;;;28.90;28.60;;;;;;5095817;28;20468;-72
2021/10/24 12:32:35;;;;;;;5.77;3.30;;;29.10;29.10;;;;;;5095913;28;20446;-73
2021/10/24 12:35:06;;;;;;;3.43;2.90;;;29.30;28.70;;;;;;5096089;28;20443;-72
2021/10/24 12:37:34;;;;;;;4.33;2.80;;;29.60;29.40;;;;;;5095681;28;20463;-72
2021/10/24 12:40:23;;;;;;;4.70;2.70;;;29.90;28.60;;;;;;5095552;28;20459;-72
2021/10/24 12:43:14;;;;;;;3.17;2.87;;;30.20;28.10;;;;;;5096220;28;20485;-72
2021/10/24 12:45:49;;;;;;;3.73;2.97;;;30.40;27.50;;;;;;5080517;28;20538;-72
2021/10/24 12:48:17;;;;;;;5.20;3.73;;;30.70;27.80;;;;;;5095347;28;20800;-72
2021/10/24 12:50:44;;;;;;;4.80;3.70;;;30.20;25.70;;;;;;5095270;28;20988;-73
2021/10/24 12:53:14;;;;;;;4.83;2.90;;;30.10;26.30;;;;;;5095355;28;20442;-73
2021/10/24 12:55:57;;;;;;;6.00;3.00;;;30.00;26.20;;;;;;5095262;28;20447;-73
2021/10/24 12:58:24;;;;;;;3.23;2.80;;;30.00;27.60;;;;;;5095956;28;20431;-73
2021/10/24 13:00:52;;;;;;;4.60;3.47;;;30.20;28.70;;;;;;5095224;28;20467;-73
2021/10/24 13:03:19;;;;;;;4.10;3.03;;;30.50;27.20;;;;;;5095411;28;20427;-72